createdAt,value
2023-02-25T00:02:03.184Z,100.00
2023-02-25T00:04:31.853Z,100.00
2023-02-25T00:07:19.125Z,100.00
2023-02-25T00:09:47.854Z,100.00
2023-02-25T00:12:15.379Z,100.00
2023-02-25T00:14:42.959Z,100.00
2023-02-25T00:17:12.110Z,100.00
2023-02-25T00:19:39.776Z,100.00
2023-02-25T00:22:07.122Z,100.00
2023-02-25T00:24:36.177Z,100.00
2023-02-25T00:27:04.612Z,100.00
2023-02-25T00:29:32.071Z,100.00
2023-02-25T00:31:59.846Z,100.00
2023-02-25T00:34:28.692Z,100.00
2023-02-25T00:36:56.103Z,100.00
2023-02-25T00:39:24.705Z,100.00
2023-02-25T00:41:52.246Z,100.00
2023-02-25T00:44:19.717Z,100.00
2023-02-25T00:46:47.120Z,100.00
2023-02-25T00:49:27.061Z,100.00
2023-02-25T00:52:00.276Z,100.00
2023-02-25T00:54:27.998Z,100.00
2023-02-25T00:56:55.462Z,100.00
2023-02-25T00:59:23.070Z,100.00
2023-02-25T01:01:51.327Z,100.00
2023-02-25T01:04:19.190Z,100.00
2023-02-25T01:06:47.826Z,100.00
2023-02-25T01:09:15.605Z,100.00
2023-02-25T01:11:45.806Z,100.00
2023-02-25T01:14:17.443Z,100.00
2023-02-25T01:16:46.803Z,100.00
2023-02-25T01:19:23.013Z,100.00
2023-02-25T01:21:54.979Z,100.00
2023-02-25T01:24:31.296Z,100.00
2023-02-25T01:27:02.141Z,100.00
2023-02-25T01:29:35.374Z,100.00
2023-02-25T01:32:04.560Z,100.00
2023-02-25T01:34:32.499Z,100.00
2023-02-25T01:37:06.553Z,100.00
2023-02-25T01:39:34.949Z,100.00
2023-02-25T01:42:05.323Z,100.00
2023-02-25T01:44:36.809Z,100.00
2023-02-25T01:47:20.775Z,100.00
2023-02-25T01:49:48.424Z,100.00
2023-02-25T01:52:21.010Z,100.00
2023-02-25T01:54:54.078Z,100.00
2023-02-25T01:57:22.144Z,100.00
2023-02-25T01:59:52.117Z,100.00
2023-02-25T02:02:26.333Z,100.00
2023-02-25T02:04:54.933Z,100.00
2023-02-25T02:07:24.892Z,100.00
2023-02-25T02:09:57.267Z,100.00
2023-02-25T02:12:31.851Z,100.00
2023-02-25T02:15:02.766Z,100.00
2023-02-25T02:17:33.324Z,100.00
2023-02-25T02:20:30.876Z,100.00
2023-02-25T02:23:24.687Z,100.00
2023-02-25T02:26:27.509Z,100.00
2023-02-25T02:29:20.662Z,100.00
2023-02-25T02:32:00.430Z,100.00
2023-02-25T02:34:48.867Z,100.00
2023-02-25T02:37:30.547Z,100.00
2023-02-25T02:40:14.576Z,100.00
2023-02-25T02:43:01.544Z,100.00
2023-02-25T02:45:38.833Z,100.00
2023-02-25T02:48:11.736Z,100.00
2023-02-25T02:50:45.324Z,100.00
2023-02-25T02:53:28.933Z,100.00
2023-02-25T02:56:01.298Z,100.00
2023-02-25T02:58:34.551Z,100.00
2023-02-25T03:01:16.823Z,100.00
2023-02-25T03:03:49.575Z,100.00
2023-02-25T03:06:23.711Z,100.00
2023-02-25T03:09:15.098Z,100.00
2023-02-25T03:11:43.113Z,100.00
2023-02-25T03:14:13.086Z,100.00
2023-02-25T03:16:51.668Z,100.00
2023-02-25T03:19:27.207Z,100.00
2023-02-25T03:22:02.322Z,100.00
2023-02-25T03:24:37.779Z,100.00
2023-02-25T03:27:35.441Z,100.00
2023-02-25T03:30:27.814Z,100.00
2023-02-25T03:33:11.550Z,100.00
2023-02-25T03:35:41.766Z,100.00
2023-02-25T03:38:14.146Z,100.00
2023-02-25T03:40:43.692Z,100.00
2023-02-25T03:43:21.436Z,100.00
2023-02-25T03:45:49.296Z,100.00
2023-02-25T03:48:19.385Z,100.00
2023-02-25T03:51:01.927Z,100.00
2023-02-25T03:53:50.284Z,100.00
2023-02-25T03:56:18.261Z,100.00
2023-02-25T03:58:45.659Z,100.00
2023-02-25T04:01:30.395Z,100.00
2023-02-25T04:03:58.332Z,100.00
2023-02-25T04:06:25.979Z,100.00
2023-02-25T04:08:54.852Z,100.00
2023-02-25T04:11:22.206Z,100.00
2023-02-25T04:13:49.869Z,100.00
2023-02-25T04:16:17.430Z,100.00
2023-02-25T04:18:49.075Z,100.00
2023-02-25T04:21:30.457Z,100.00
2023-02-25T04:23:59.097Z,100.00
2023-02-25T04:26:27.078Z,100.00
2023-02-25T04:28:59.079Z,100.00
2023-02-25T04:31:27.085Z,100.00
2023-02-25T04:33:54.733Z,100.00
2023-02-25T04:36:29.952Z,100.00
2023-02-25T04:38:59.282Z,100.00
2023-02-25T04:41:34.381Z,100.00
2023-02-25T04:44:05.140Z,100.00
2023-02-25T04:46:42.629Z,100.00
2023-02-25T04:49:12.107Z,100.00
2023-02-25T04:51:41.867Z,100.00
2023-02-25T04:54:09.566Z,100.00
2023-02-25T04:56:38.833Z,100.00
2023-02-25T04:59:07.625Z,100.00
2023-02-25T05:01:35.210Z,100.00
2023-02-25T05:04:03.071Z,100.00
2023-02-25T05:06:31.066Z,100.00
2023-02-25T05:09:00.407Z,100.00
2023-02-25T05:11:29.385Z,100.00
2023-02-25T05:13:58.436Z,100.00
2023-02-25T05:16:27.772Z,100.00
2023-02-25T05:18:55.846Z,100.00
2023-02-25T05:21:26.683Z,100.00
2023-02-25T05:23:54.504Z,100.00
2023-02-25T05:26:25.128Z,100.00
2023-02-25T05:28:55.023Z,100.00
2023-02-25T05:31:25.003Z,100.00
2023-02-25T05:33:53.400Z,100.00
2023-02-25T05:36:21.498Z,100.00
2023-02-25T05:38:49.268Z,100.00
2023-02-25T05:41:16.662Z,100.00
2023-02-25T05:43:46.097Z,100.00
2023-02-25T05:46:14.370Z,100.00
2023-02-25T05:48:46.035Z,100.00
2023-02-25T05:51:19.380Z,100.00
2023-02-25T05:53:48.113Z,100.00
2023-02-25T05:56:18.880Z,100.00
2023-02-25T05:58:48.481Z,100.00
2023-02-25T06:01:19.889Z,100.00
2023-02-25T06:03:48.698Z,100.00
2023-02-25T06:06:18.218Z,100.00
2023-02-25T06:08:45.938Z,100.00
2023-02-25T06:11:19.969Z,100.00
2023-02-25T06:13:51.894Z,100.00
2023-02-25T06:16:21.637Z,100.00
2023-02-25T06:18:51.842Z,100.00
2023-02-25T06:21:19.946Z,100.00
2023-02-25T06:23:50.499Z,100.00
2023-02-25T06:26:24.298Z,100.00
2023-02-25T06:28:52.093Z,100.00
2023-02-25T06:31:22.566Z,100.00
2023-02-25T06:33:51.108Z,100.00
2023-02-25T06:36:21.843Z,100.00
2023-02-25T06:38:49.715Z,100.00
2023-02-25T06:41:19.761Z,100.00
2023-02-25T06:43:52.281Z,100.00
2023-02-25T06:46:24.356Z,100.00
2023-02-25T06:48:52.582Z,100.00
2023-02-25T06:51:20.339Z,100.00
2023-02-25T06:53:47.943Z,100.00
2023-02-25T06:56:16.592Z,100.00
2023-02-25T06:58:44.174Z,100.00
2023-02-25T07:01:15.004Z,100.00
2023-02-25T07:03:43.742Z,100.00
2023-02-25T07:06:15.456Z,100.00
2023-02-25T07:08:43.267Z,100.00
2023-02-25T07:11:15.340Z,100.00
2023-02-25T07:13:43.761Z,100.00
2023-02-25T07:16:13.157Z,100.00
2023-02-25T07:18:42.992Z,100.00
2023-02-25T07:21:12.525Z,100.00
2023-02-25T07:23:40.114Z,100.00
2023-02-25T07:26:10.004Z,100.00
2023-02-25T07:28:38.773Z,100.00
2023-02-25T07:31:12.505Z,100.00
2023-02-25T07:33:45.880Z,100.00
2023-02-25T07:36:14.299Z,100.00
2023-02-25T07:38:42.681Z,100.00
2023-02-25T07:41:12.624Z,100.00
2023-02-25T07:43:40.558Z,100.00
2023-02-25T07:46:11.426Z,100.00
2023-02-25T07:48:40.041Z,100.00
2023-02-25T07:51:12.896Z,100.00
2023-02-25T07:53:40.491Z,100.00
2023-02-25T07:56:08.664Z,100.00
2023-02-25T07:58:37.014Z,100.00
2023-02-25T08:01:10.922Z,100.00
2023-02-25T08:03:39.637Z,100.00
2023-02-25T08:06:08.424Z,100.00
2023-02-25T08:08:37.086Z,100.00
2023-02-25T08:11:07.614Z,100.00
2023-02-25T08:13:35.897Z,100.00
2023-02-25T08:16:08.474Z,100.00
2023-02-25T08:18:38.129Z,100.00
2023-02-25T08:21:05.705Z,100.00
2023-02-25T08:23:33.159Z,100.00
2023-02-25T08:26:01.169Z,100.00
2023-02-25T08:28:34.282Z,100.00
2023-02-25T08:31:04.568Z,100.00
2023-02-25T08:33:32.309Z,100.00
2023-02-25T08:36:11.755Z,100.00
2023-02-25T08:38:39.766Z,100.00
2023-02-25T08:41:09.539Z,100.00
2023-02-25T08:43:38.270Z,100.00
2023-02-25T08:46:06.835Z,100.00
2023-02-25T08:48:35.955Z,100.00
2023-02-25T08:51:08.923Z,100.00
2023-02-25T08:53:40.723Z,100.00
2023-02-25T08:56:11.081Z,100.00
2023-02-25T08:58:39.956Z,100.00
2023-02-25T09:01:14.354Z,100.00
2023-02-25T09:03:53.050Z,100.00
2023-02-25T09:06:28.071Z,100.00
2023-02-25T09:08:57.983Z,100.00
2023-02-25T09:11:26.126Z,100.00
2023-02-25T09:13:54.501Z,100.00
2023-02-25T09:16:22.020Z,100.00
2023-02-25T09:18:51.707Z,100.00
2023-02-25T09:21:25.718Z,100.00
2023-02-25T09:23:54.225Z,100.00
2023-02-25T09:26:22.691Z,99.77
2023-02-25T09:28:50.264Z,99.76
2023-02-25T09:31:18.575Z,99.22
2023-02-25T09:33:47.917Z,98.93
2023-02-25T09:36:17.503Z,98.89
2023-02-25T09:38:46.444Z,98.71
2023-02-25T09:41:33.998Z,97.02
2023-02-25T09:44:07.058Z,96.52
2023-02-25T09:46:41.551Z,98.26
2023-02-25T09:49:10.080Z,94.35
2023-02-25T09:51:43.882Z,92.10
2023-02-25T09:54:15.954Z,92.86
2023-02-25T09:56:44.252Z,89.73
2023-02-25T09:59:21.633Z,89.33
2023-02-25T10:01:57.428Z,89.88
2023-02-25T10:05:00.307Z,88.09
2023-02-25T10:07:36.003Z,86.22
2023-02-25T10:10:14.785Z,86.24
2023-02-25T10:13:04.165Z,84.98
2023-02-25T10:15:53.311Z,83.63
2023-02-25T10:18:37.813Z,84.01
2023-02-25T10:21:39.590Z,83.11
2023-02-25T10:24:26.873Z,83.45
2023-02-25T10:27:07.557Z,81.69
2023-02-25T10:30:12.778Z,82.03
2023-02-25T10:32:43.714Z,82.46
2023-02-25T10:35:24.207Z,81.61
2023-02-25T10:37:51.933Z,84.44
2023-02-25T10:40:23.125Z,84.33
2023-02-25T10:42:54.581Z,83.51
2023-02-25T10:45:29.294Z,85.89
2023-02-25T10:48:11.697Z,85.27
2023-02-25T10:50:45.869Z,86.80
2023-02-25T10:53:18.775Z,87.47
2023-02-25T10:55:52.074Z,88.46
2023-02-25T10:58:25.166Z,88.22
2023-02-25T11:01:23.952Z,87.36
2023-02-25T11:03:59.408Z,88.59
2023-02-25T11:06:31.021Z,87.99
2023-02-25T11:09:01.412Z,88.32
2023-02-25T11:11:39.046Z,88.57
2023-02-25T11:14:09.538Z,86.81
2023-02-25T11:16:39.342Z,87.28
2023-02-25T11:19:18.285Z,88.60
2023-02-25T11:21:47.322Z,89.14
2023-02-25T11:24:28.595Z,88.26
2023-02-25T11:26:57.214Z,87.83
2023-02-25T11:29:32.321Z,87.81
2023-02-25T11:32:12.536Z,87.70
2023-02-25T11:34:56.443Z,88.21
2023-02-25T11:40:02.075Z,88.18
2023-02-25T11:42:31.403Z,87.54
2023-02-25T11:45:04.648Z,89.23
2023-02-25T11:47:36.038Z,88.49
2023-02-25T11:50:37.540Z,88.76
2023-02-25T11:53:29.178Z,87.69
2023-02-25T11:56:15.531Z,87.98
2023-02-25T11:59:12.806Z,86.88
2023-02-25T12:01:55.645Z,87.47
2023-02-25T12:04:28.622Z,88.71
2023-02-25T12:07:17.955Z,87.80
2023-02-25T12:09:45.308Z,89.17
2023-02-25T12:12:45.290Z,88.17
2023-02-25T12:15:40.757Z,87.74
2023-02-25T12:18:10.868Z,86.46
2023-02-25T12:21:00.383Z,86.01
2023-02-25T12:23:39.984Z,84.79
2023-02-25T12:26:20.005Z,83.91
2023-02-25T12:29:08.527Z,83.95
2023-02-25T12:32:00.918Z,84.75
2023-02-25T12:34:34.537Z,85.17
2023-02-25T12:37:13.985Z,84.48
2023-02-25T12:39:48.430Z,84.69
2023-02-25T12:42:33.270Z,83.63
2023-02-25T12:45:22.431Z,83.25
2023-02-25T12:48:27.624Z,83.35
2023-02-25T12:51:35.477Z,83.59
2023-02-25T12:54:28.487Z,83.43
2023-02-25T12:57:10.238Z,84.19
2023-02-25T13:00:34.508Z,86.73
2023-02-25T13:03:21.369Z,87.77
2023-02-25T13:06:14.670Z,87.96
2023-02-25T13:09:01.284Z,86.73
2023-02-25T13:12:12.030Z,87.47
2023-02-25T13:14:51.944Z,87.92
2023-02-25T13:17:37.634Z,88.82
2023-02-25T13:20:26.857Z,89.17
2023-02-25T13:23:09.639Z,89.31
2023-02-25T13:26:16.895Z,90.94
2023-02-25T13:29:19.941Z,90.92
2023-02-25T13:32:26.616Z,91.16
2023-02-25T13:35:35.317Z,92.36
2023-02-25T13:38:15.976Z,92.86
2023-02-25T13:41:15.193Z,93.21
2023-02-25T13:43:51.903Z,93.69
2023-02-25T13:46:19.240Z,94.42
2023-02-25T13:48:55.833Z,94.57
2023-02-25T13:52:02.269Z,94.89
2023-02-25T13:54:47.918Z,94.54
2023-02-25T13:57:31.269Z,95.36
2023-02-25T14:00:23.968Z,96.06
2023-02-25T14:03:29.690Z,95.74
2023-02-25T14:06:15.141Z,96.00
2023-02-25T14:09:07.635Z,95.75
2023-02-25T14:11:43.840Z,95.76
2023-02-25T14:14:36.409Z,96.15
2023-02-25T14:17:22.395Z,95.94
2023-02-25T14:20:23.637Z,95.98
2023-02-25T14:23:06.790Z,96.49
2023-02-25T14:25:52.806Z,97.21
2023-02-25T14:28:32.123Z,98.02
2023-02-25T14:31:00.086Z,97.85
2023-02-25T14:33:59.713Z,97.87
2023-02-25T14:36:46.418Z,96.54
2023-02-25T14:39:38.990Z,98.19
2023-02-25T14:42:35.735Z,98.39
2023-02-25T14:45:08.955Z,100.00
2023-02-25T14:47:43.203Z,100.00
2023-02-25T14:50:20.502Z,100.00
2023-02-25T14:53:03.579Z,100.00
2023-02-25T14:55:52.484Z,100.00
2023-02-25T14:58:26.516Z,100.00
2023-02-25T15:01:18.696Z,100.00
2023-02-25T15:03:55.657Z,100.00
2023-02-25T15:06:42.210Z,100.00
2023-02-25T15:10:03.864Z,100.00
2023-02-25T15:12:58.829Z,100.00
2023-02-25T15:15:50.966Z,100.00
2023-02-25T15:18:27.954Z,100.00
2023-02-25T15:20:56.401Z,100.00
2023-02-25T15:23:49.914Z,100.00
2023-02-25T15:26:22.054Z,100.00
2023-02-25T15:28:52.374Z,100.00
2023-02-25T15:31:31.367Z,100.00
2023-02-25T15:34:23.583Z,100.00
2023-02-25T15:37:30.282Z,100.00
2023-02-25T15:40:16.894Z,100.00
2023-02-25T15:42:48.858Z,100.00
2023-02-25T15:45:29.044Z,100.00
2023-02-25T15:48:11.686Z,100.00
2023-02-25T15:50:51.884Z,100.00
2023-02-25T15:53:23.538Z,100.00
2023-02-25T15:56:06.603Z,100.00
2023-02-25T15:58:45.347Z,100.00
2023-02-25T16:01:39.958Z,100.00
2023-02-25T16:04:47.467Z,100.00
2023-02-25T16:07:18.777Z,100.00
2023-02-25T16:09:57.419Z,100.00
2023-02-25T16:12:25.697Z,100.00
2023-02-25T16:14:56.796Z,100.00
2023-02-25T16:17:32.585Z,100.00
2023-02-25T16:20:13.765Z,100.00
2023-02-25T16:22:46.097Z,100.00
2023-02-25T16:25:19.022Z,100.00
2023-02-25T16:27:58.178Z,100.00
2023-02-25T16:31:03.900Z,100.00
2023-02-25T16:34:20.543Z,100.00
2023-02-25T16:37:09.920Z,100.00
2023-02-25T16:39:38.086Z,100.00
2023-02-25T16:42:12.320Z,100.00
2023-02-25T16:44:42.138Z,100.00
2023-02-25T16:47:31.262Z,100.00
2023-02-25T16:50:01.979Z,100.00
2023-02-25T16:52:34.281Z,100.00
2023-02-25T16:55:12.441Z,100.00
2023-02-25T16:57:40.274Z,100.00
2023-02-25T17:00:23.151Z,100.00
2023-02-25T17:02:52.658Z,100.00
2023-02-25T17:05:36.629Z,100.00
2023-02-25T17:08:14.603Z,100.00
2023-02-25T17:10:56.744Z,100.00
2023-02-25T17:13:36.616Z,100.00
2023-02-25T17:16:06.070Z,100.00
2023-02-25T17:18:50.131Z,100.00
2023-02-25T17:21:27.285Z,100.00
2023-02-25T17:23:55.197Z,100.00
2023-02-25T17:26:23.233Z,100.00
2023-02-25T17:28:55.810Z,100.00
2023-02-25T17:31:27.097Z,100.00
2023-02-25T17:33:58.945Z,100.00
2023-02-25T17:36:35.677Z,100.00
2023-02-25T17:39:07.742Z,100.00
2023-02-25T17:41:36.768Z,100.00
2023-02-25T17:44:04.490Z,100.00
2023-02-25T17:46:44.717Z,100.00
2023-02-25T17:49:21.802Z,100.00
2023-02-25T17:51:55.487Z,100.00
2023-02-25T17:54:25.294Z,100.00
2023-02-25T17:57:02.156Z,100.00
2023-02-25T17:59:41.157Z,100.00
2023-02-25T18:02:29.083Z,100.00
2023-02-25T18:05:21.607Z,100.00
2023-02-25T18:07:57.834Z,100.00
2023-02-25T18:10:31.451Z,100.00
2023-02-25T18:13:02.501Z,100.00
2023-02-25T18:15:33.315Z,100.00
2023-02-25T18:18:07.468Z,100.00
2023-02-25T18:20:42.345Z,100.00
2023-02-25T18:23:27.815Z,100.00
2023-02-25T18:26:19.226Z,100.00
2023-02-25T18:28:47.527Z,100.00
2023-02-25T18:31:16.963Z,100.00
2023-02-25T18:33:46.217Z,100.00
2023-02-25T18:36:26.595Z,100.00
2023-02-25T18:39:02.335Z,100.00
2023-02-25T18:41:30.961Z,100.00
2023-02-25T18:43:59.061Z,100.00
2023-02-25T18:46:30.446Z,100.00
2023-02-25T18:48:58.400Z,100.00
2023-02-25T18:51:25.742Z,100.00
2023-02-25T18:53:53.331Z,100.00
2023-02-25T18:56:21.380Z,100.00
2023-02-25T18:58:48.833Z,100.00
2023-02-25T19:01:23.629Z,100.00
2023-02-25T19:03:52.049Z,100.00
2023-02-25T19:06:19.764Z,100.00
2023-02-25T19:08:47.149Z,100.00
2023-02-25T19:11:22.058Z,100.00
2023-02-25T19:13:49.843Z,100.00
2023-02-25T19:16:17.401Z,100.00
2023-02-25T19:18:47.294Z,100.00
2023-02-25T19:21:20.367Z,100.00
2023-02-25T19:23:51.762Z,100.00
2023-02-25T19:26:19.916Z,100.00
2023-02-25T19:28:47.629Z,100.00
2023-02-25T19:31:15.285Z,100.00
2023-02-25T19:33:43.942Z,100.00
2023-02-25T19:36:12.090Z,100.00
2023-02-25T19:38:39.503Z,100.00
2023-02-25T19:41:07.767Z,100.00
2023-02-25T19:43:35.290Z,100.00
2023-02-25T19:46:07.109Z,100.00
2023-02-25T19:48:35.080Z,100.00
2023-02-25T19:51:07.019Z,100.00
2023-02-25T19:53:37.289Z,100.00
2023-02-25T19:56:08.040Z,100.00
2023-02-25T19:58:36.819Z,100.00
2023-02-25T20:01:06.648Z,100.00
2023-02-25T20:03:36.694Z,100.00
2023-02-25T20:06:13.296Z,100.00
2023-02-25T20:08:44.254Z,100.00
2023-02-25T20:11:12.313Z,100.00
2023-02-25T20:13:39.833Z,100.00
2023-02-25T20:16:09.353Z,100.00
2023-02-25T20:18:37.022Z,100.00
2023-02-25T20:21:05.457Z,100.00
2023-02-25T20:23:33.278Z,100.00
2023-02-25T20:26:09.776Z,100.00
2023-02-25T20:28:37.679Z,100.00
2023-02-25T20:31:13.889Z,100.00
2023-02-25T20:33:42.435Z,100.00
2023-02-25T20:36:36.077Z,100.00
2023-02-25T20:39:12.733Z,100.00
2023-02-25T20:41:42.169Z,100.00
2023-02-25T20:44:10.920Z,100.00
2023-02-25T20:46:40.364Z,100.00
2023-02-25T20:49:12.162Z,100.00
2023-02-25T20:51:39.924Z,100.00
2023-02-25T20:54:07.630Z,100.00
2023-02-25T20:56:40.396Z,100.00
2023-02-25T20:59:08.917Z,100.00
2023-02-25T21:01:36.322Z,100.00
2023-02-25T21:04:06.375Z,100.00
2023-02-25T21:06:34.617Z,100.00
2023-02-25T21:09:02.152Z,100.00
2023-02-25T21:11:29.596Z,100.00
2023-02-25T21:13:57.330Z,100.00
2023-02-25T21:16:25.358Z,100.00
2023-02-25T21:18:53.635Z,100.00
2023-02-25T21:21:21.892Z,100.00
2023-02-25T21:23:52.816Z,100.00
2023-02-25T21:26:20.292Z,100.00
2023-02-25T21:28:47.740Z,100.00
2023-02-25T21:31:16.249Z,100.00
2023-02-25T21:33:43.798Z,100.00
2023-02-25T21:36:11.634Z,100.00
2023-02-25T21:38:39.919Z,100.00
2023-02-25T21:41:12.926Z,100.00
2023-02-25T21:43:42.962Z,100.00
2023-02-25T21:46:13.634Z,100.00
2023-02-25T21:48:42.814Z,100.00
2023-02-25T21:51:22.626Z,100.00
2023-02-25T21:53:57.527Z,100.00
2023-02-25T21:56:27.127Z,100.00
2023-02-25T21:58:57.061Z,100.00
2023-02-25T22:01:37.206Z,100.00
2023-02-25T22:04:05.605Z,100.00
2023-02-25T22:06:34.714Z,100.00
2023-02-25T22:09:04.259Z,100.00
2023-02-25T22:11:34.688Z,100.00
2023-02-25T22:14:07.479Z,100.00
2023-02-25T22:16:35.868Z,100.00
2023-02-25T22:19:04.283Z,100.00
2023-02-25T22:21:35.569Z,100.00
2023-02-25T22:24:04.834Z,100.00
2023-02-25T22:26:37.600Z,100.00
2023-02-25T22:29:07.820Z,100.00
2023-02-25T22:31:36.343Z,100.00
2023-02-25T22:34:05.849Z,100.00
2023-02-25T22:36:33.251Z,100.00
2023-02-25T22:39:05.572Z,100.00
2023-02-25T22:41:33.415Z,100.00
2023-02-25T22:44:01.608Z,100.00
2023-02-25T22:46:36.160Z,100.00
2023-02-25T22:49:05.119Z,100.00
2023-02-25T22:51:42.143Z,100.00
2023-02-25T22:54:15.287Z,100.00
2023-02-25T22:56:43.475Z,100.00
2023-02-25T22:59:12.168Z,100.00
2023-02-25T23:01:40.539Z,100.00
2023-02-25T23:04:10.884Z,100.00
2023-02-25T23:06:44.543Z,100.00
2023-02-25T23:09:14.032Z,100.00
2023-02-25T23:11:44.363Z,100.00
2023-02-25T23:14:13.607Z,100.00
2023-02-25T23:16:44.157Z,100.00
2023-02-25T23:19:15.933Z,100.00
2023-02-25T23:21:44.147Z,100.00
2023-02-25T23:24:18.680Z,100.00
2023-02-25T23:26:50.483Z,100.00
2023-02-25T23:29:18.666Z,100.00
2023-02-25T23:31:49.937Z,100.00
2023-02-25T23:34:23.506Z,100.00
2023-02-25T23:36:56.078Z,100.00
2023-02-25T23:39:24.015Z,100.00
2023-02-25T23:41:51.566Z,100.00
2023-02-25T23:44:19.348Z,100.00
2023-02-25T23:46:47.520Z,100.00
2023-02-25T23:49:16.219Z,100.00
2023-02-25T23:51:46.185Z,100.00
2023-02-25T23:54:16.688Z,100.00
2023-02-25T23:56:44.053Z,100.00
2023-02-25T23:59:12.568Z,100.00
